MZBZ/BZE METAR and TAF weather

Enter ICAO airport designator
Station Type Date Time Source
MZBZ METAR 2024/04/15 00:00 UTC NOAA

MZBZ 150000Z 10006KT 9999 FEW020 28/24 A2997 Q1014 NOSIG


Station Type Date Time Source
MZBZ Decoded METAR 2024/04/15 00:00 UTC NOAA

Belize / Phillip Goldston Intl. Airport, Belize (MZBZ) 17-32N 088-18W 5M
Apr 14, 2024 - 08:00 PM EDT / 2024.04.15 0000 UTC
Wind: from the E (100 degrees) at 7 MPH (6 KT):0
Visibility: greater than 7 mile(s):0
Sky conditions: mostly clear
Temperature: 82 F (28 C)
Dew Point: 75 F (24 C)
Relative Humidity: 78%
Pressure (altimeter): 29.97 in. Hg (1014 hPa)
ob: MZBZ 150000Z 10006KT 9999 FEW020 28/24 A2997 Q1014 NOSIG
cycle: 0

Station Type Date Time Source
MZBZ TAF 2024/04/15 06:16 UTC NOAA